createdAt,value
2023-04-24T00:00:46.032Z,1.80
2023-04-24T00:03:13.699Z,1.50
2023-04-24T00:05:41.337Z,1.23
2023-04-24T00:08:07.679Z,1.60
2023-04-24T00:10:33.998Z,1.85
2023-04-24T00:13:00.288Z,1.40
2023-04-24T00:15:26.578Z,1.50
2023-04-24T00:17:54.369Z,1.63
2023-04-24T00:20:20.828Z,1.67
2023-04-24T00:22:47.224Z,1.50
2023-04-24T00:25:13.590Z,1.48
2023-04-24T00:27:39.970Z,2.05
2023-04-24T00:30:07.025Z,1.92
2023-04-24T00:32:33.358Z,2.03
2023-04-24T00:34:59.747Z,1.80
2023-04-24T00:37:26.326Z,2.05
2023-04-24T00:39:52.573Z,1.95
2023-04-24T00:42:18.924Z,1.80
2023-04-24T00:44:45.615Z,1.75
2023-04-24T00:47:12.760Z,1.95
2023-04-24T00:49:39.133Z,1.83
2023-04-24T00:52:08.604Z,2.10
2023-04-24T00:54:35.673Z,2.15
2023-04-24T00:57:03.426Z,2.10
2023-04-24T00:59:30.478Z,2.20
2023-04-24T01:01:58.450Z,2.00
2023-04-24T01:04:25.599Z,2.28
2023-04-24T01:06:53.602Z,2.17
2023-04-24T01:09:20.041Z,2.20
2023-04-24T01:11:46.332Z,2.22
2023-04-24T01:14:12.675Z,2.70
2023-04-24T01:16:39.218Z,2.58
2023-04-24T01:19:07.503Z,2.65
2023-04-24T01:21:36.824Z,2.88
2023-04-24T01:24:03.513Z,2.40
2023-04-24T01:26:29.886Z,2.40
2023-04-24T01:28:57.534Z,3.08
2023-04-24T01:31:24.356Z,3.20
2023-04-24T01:33:51.773Z,2.67
2023-04-24T01:36:18.929Z,2.97
2023-04-24T01:38:45.299Z,3.25
2023-04-24T01:41:11.884Z,3.30
2023-04-24T01:43:38.536Z,3.45
2023-04-24T01:46:04.863Z,3.22
2023-04-24T01:48:31.780Z,2.92
2023-04-24T01:50:58.173Z,3.20
2023-04-24T01:53:24.555Z,3.20
2023-04-24T01:55:50.832Z,3.45
2023-04-24T01:58:17.233Z,3.47
2023-04-24T02:00:43.545Z,3.45
2023-04-24T02:03:10.020Z,3.55
2023-04-24T02:05:36.362Z,3.25
2023-04-24T02:08:02.824Z,3.95
2023-04-24T02:10:29.085Z,3.58
2023-04-24T02:12:55.571Z,4.13
2023-04-24T02:15:22.565Z,4.05
2023-04-24T02:17:48.977Z,3.28
2023-04-24T02:20:15.300Z,4.13
2023-04-24T02:22:41.571Z,3.47
2023-04-24T02:25:08.869Z,4.20
2023-04-24T02:27:35.130Z,3.33
2023-04-24T02:30:01.706Z,3.10
2023-04-24T02:32:28.030Z,3.20
2023-04-24T02:34:54.378Z,4.40
2023-04-24T02:37:20.717Z,3.63
2023-04-24T02:39:48.476Z,3.30
2023-04-24T02:42:14.807Z,3.50
2023-04-24T02:44:41.768Z,3.25
2023-04-24T02:47:08.678Z,3.95
2023-04-24T02:49:34.940Z,3.33
2023-04-24T02:52:01.652Z,3.60
2023-04-24T02:54:27.909Z,3.45
2023-04-24T02:56:54.720Z,3.58
2023-04-24T02:59:21.120Z,3.63
2023-04-24T03:01:50.468Z,3.30
2023-04-24T03:04:17.601Z,3.25
2023-04-24T03:06:44.264Z,3.30
2023-04-24T03:09:12.398Z,4.00
2023-04-24T03:11:38.700Z,3.17
2023-04-24T03:14:05.033Z,3.60
2023-04-24T03:16:31.523Z,3.50
2023-04-24T03:18:57.784Z,3.78
2023-04-24T03:21:24.029Z,3.25
2023-04-24T03:23:50.744Z,3.63
2023-04-24T03:26:17.041Z,3.95
2023-04-24T03:28:43.781Z,3.78
2023-04-24T03:31:10.069Z,3.42
2023-04-24T03:33:37.700Z,3.28
2023-04-24T03:36:05.930Z,3.47
2023-04-24T03:38:32.532Z,3.30
2023-04-24T03:40:59.090Z,3.28
2023-04-24T03:43:25.816Z,3.15
2023-04-24T03:45:52.807Z,3.55
2023-04-24T03:48:19.145Z,3.60
2023-04-24T03:50:45.471Z,3.00
2023-04-24T03:53:11.782Z,2.83
2023-04-24T03:55:38.030Z,2.75
2023-04-24T03:58:04.414Z,2.75
2023-04-24T04:00:34.707Z,3.08
2023-04-24T04:03:01.328Z,3.35
2023-04-24T04:05:27.987Z,2.80
2023-04-24T04:07:54.407Z,3.05
2023-04-24T04:10:21.088Z,3.20
2023-04-24T04:12:47.370Z,3.13
2023-04-24T04:15:13.884Z,3.15
2023-04-24T04:17:40.765Z,3.05
2023-04-24T04:20:10.716Z,3.05
2023-04-24T04:22:37.498Z,3.15
2023-04-24T04:25:04.134Z,3.10
2023-04-24T04:27:33.003Z,3.58
2023-04-24T04:30:02.721Z,2.90
2023-04-24T04:32:29.056Z,3.75
2023-04-24T04:34:55.311Z,2.83
2023-04-24T04:37:21.859Z,3.20
2023-04-24T04:39:48.154Z,3.05
2023-04-24T04:42:14.705Z,3.08
2023-04-24T04:44:41.768Z,2.90
2023-04-24T04:47:08.605Z,2.95
2023-04-24T04:49:35.626Z,3.22
2023-04-24T04:52:01.905Z,3.13
2023-04-24T04:54:28.173Z,2.60
2023-04-24T04:56:54.813Z,2.70
2023-04-24T04:59:21.974Z,2.95
2023-04-24T05:01:48.282Z,2.83
2023-04-24T05:04:14.742Z,2.83
2023-04-24T05:06:41.181Z,2.80
2023-04-24T05:09:08.730Z,3.33
2023-04-24T05:11:35.012Z,2.80
2023-04-24T05:14:01.361Z,3.00
2023-04-24T05:16:27.732Z,3.20
2023-04-24T05:18:54.064Z,2.85
2023-04-24T05:21:20.468Z,2.90
2023-04-24T05:23:46.844Z,2.90
2023-04-24T05:26:14.382Z,2.70
2023-04-24T05:28:41.890Z,2.65
2023-04-24T05:31:08.372Z,2.42
2023-04-24T05:33:34.848Z,2.90
2023-04-24T05:36:01.153Z,2.92
2023-04-24T05:38:27.468Z,2.53
2023-04-24T05:40:53.767Z,2.55
2023-04-24T05:43:20.173Z,2.60
2023-04-24T05:45:46.698Z,2.92
2023-04-24T05:48:13.005Z,2.60
2023-04-24T05:50:39.341Z,2.28
2023-04-24T05:53:08.224Z,2.47
2023-04-24T05:55:34.637Z,2.10
2023-04-24T05:58:01.902Z,2.00
2023-04-24T06:00:28.285Z,2.05
2023-04-24T06:02:55.321Z,2.05
2023-04-24T06:05:22.011Z,2.00
2023-04-24T06:07:48.983Z,1.65
2023-04-24T06:10:15.339Z,1.58
2023-04-24T06:12:41.732Z,1.85
2023-04-24T06:15:08.320Z,2.00
2023-04-24T06:17:34.780Z,1.60
2023-04-24T06:20:01.140Z,1.60
2023-04-24T06:22:27.528Z,1.38
2023-04-24T06:24:53.891Z,1.30
2023-04-24T06:27:23.186Z,1.30
2023-04-24T06:29:55.332Z,1.45
2023-04-24T06:32:25.200Z,1.00
2023-04-24T06:34:52.263Z,1.10
2023-04-24T06:37:19.434Z,1.05
2023-04-24T06:39:46.000Z,1.40
2023-04-24T06:42:12.368Z,1.08
2023-04-24T06:44:42.148Z,1.00
2023-04-24T06:47:11.533Z,1.02
2023-04-24T06:49:38.341Z,0.82
2023-04-24T06:52:05.190Z,1.00
2023-04-24T06:54:32.027Z,0.90
2023-04-24T06:56:58.426Z,1.00
2023-04-24T06:59:25.376Z,0.95
2023-04-24T07:01:55.659Z,1.25
2023-04-24T07:04:22.291Z,1.60
2023-04-24T07:06:50.044Z,1.40
2023-04-24T07:09:18.485Z,1.73
2023-04-24T07:11:45.881Z,1.60
2023-04-24T07:14:12.524Z,1.88
2023-04-24T07:16:38.926Z,1.85
2023-04-24T07:19:05.257Z,2.50
2023-04-24T07:21:32.683Z,2.70
2023-04-24T07:23:59.358Z,2.55
2023-04-24T07:26:26.721Z,2.70
2023-04-24T07:28:53.036Z,3.17
2023-04-24T07:31:19.412Z,2.90
2023-04-24T07:33:45.958Z,2.75
2023-04-24T07:36:17.039Z,3.22
2023-04-24T07:38:43.944Z,3.15
2023-04-24T07:41:10.339Z,3.30
2023-04-24T07:43:36.660Z,2.97
2023-04-24T07:46:03.079Z,3.58
2023-04-24T07:48:29.465Z,3.30
2023-04-24T07:50:55.999Z,3.60
2023-04-24T07:53:22.303Z,3.90
2023-04-24T07:55:48.728Z,3.88
2023-04-24T07:58:15.186Z,4.13
2023-04-24T08:00:41.546Z,4.57
2023-04-24T08:03:08.194Z,4.68
2023-04-24T08:05:34.701Z,4.68
2023-04-24T08:08:01.381Z,5.28
2023-04-24T08:10:28.946Z,5.32
2023-04-24T08:12:56.384Z,5.43
2023-04-24T08:15:22.709Z,5.00
2023-04-24T08:17:49.218Z,5.25
2023-04-24T08:20:15.620Z,6.72
2023-04-24T08:22:42.386Z,6.72
2023-04-24T08:25:08.880Z,6.40
2023-04-24T08:27:35.581Z,6.30
2023-04-24T08:30:01.972Z,7.82
2023-04-24T08:32:31.438Z,7.40
2023-04-24T08:34:58.394Z,8.30
2023-04-24T08:37:24.804Z,8.77
2023-04-24T08:39:51.345Z,9.00
2023-04-24T08:42:21.091Z,9.93
2023-04-24T08:44:47.596Z,9.52
2023-04-24T08:47:15.853Z,10.23
2023-04-24T08:49:43.985Z,10.25
2023-04-24T08:52:11.099Z,9.85
2023-04-24T08:54:37.549Z,10.48
2023-04-24T08:57:04.946Z,9.85
2023-04-24T08:59:32.265Z,11.45
2023-04-24T09:01:58.834Z,10.60
2023-04-24T09:04:26.249Z,11.18
2023-04-24T09:06:56.208Z,10.73
2023-04-24T09:09:23.504Z,12.23
2023-04-24T09:11:50.403Z,11.02
2023-04-24T09:14:17.656Z,12.85
2023-04-24T09:16:44.216Z,11.98
2023-04-24T09:19:10.730Z,11.65
2023-04-24T09:21:37.149Z,12.90
2023-04-24T09:24:06.154Z,12.10
2023-04-24T09:26:33.563Z,12.15
2023-04-24T09:29:00.162Z,12.25
2023-04-24T09:31:28.085Z,13.32
2023-04-24T09:34:07.723Z,12.80
2023-04-24T09:36:42.446Z,13.40
2023-04-24T09:39:11.987Z,11.75
2023-04-24T09:41:50.584Z,11.13
2023-04-24T09:44:17.880Z,11.30
2023-04-24T09:46:49.828Z,10.35
2023-04-24T09:49:17.356Z,10.60
2023-04-24T09:51:44.025Z,11.35
2023-04-24T09:54:18.332Z,10.23
2023-04-24T09:56:46.251Z,10.98
2023-04-24T09:59:13.468Z,9.85
2023-04-24T10:01:42.940Z,10.23
2023-04-24T10:04:16.173Z,10.35
2023-04-24T10:06:43.146Z,9.93
2023-04-24T10:09:11.929Z,9.88
2023-04-24T10:11:39.962Z,10.43
2023-04-24T10:14:09.105Z,8.88
2023-04-24T10:16:36.006Z,9.18
2023-04-24T10:19:04.245Z,9.68
2023-04-24T10:21:31.469Z,8.88
2023-04-24T10:23:58.273Z,10.35
2023-04-24T10:26:24.875Z,10.18
2023-04-24T10:28:51.728Z,9.32
2023-04-24T10:31:18.412Z,8.50
2023-04-24T10:33:46.717Z,8.82
2023-04-24T10:36:14.295Z,8.75
2023-04-24T10:38:42.346Z,8.48
2023-04-24T10:41:10.649Z,8.15
2023-04-24T10:43:36.971Z,8.07
2023-04-24T10:46:04.541Z,8.77
2023-04-24T10:48:31.108Z,7.75
2023-04-24T10:50:57.411Z,7.50
2023-04-24T10:53:24.851Z,7.25
2023-04-24T10:55:52.440Z,6.75
2023-04-24T10:58:25.524Z,7.40
2023-04-24T11:00:59.037Z,7.63
2023-04-24T11:03:30.176Z,6.70
2023-04-24T11:06:06.937Z,6.65
2023-04-24T11:08:53.634Z,6.20
2023-04-24T11:11:22.214Z,5.75
2023-04-24T11:13:54.684Z,5.53
2023-04-24T11:16:24.227Z,5.50
2023-04-24T11:18:54.291Z,5.80
2023-04-24T11:21:21.490Z,5.90
2023-04-24T11:23:48.256Z,5.50
2023-04-24T11:26:25.168Z,5.50
2023-04-24T11:28:51.759Z,6.05
2023-04-24T11:31:40.203Z,5.28
2023-04-24T11:34:15.891Z,5.88
2023-04-24T11:36:46.281Z,5.53
2023-04-24T11:39:12.932Z,5.43
2023-04-24T11:41:39.827Z,6.07
2023-04-24T11:44:08.287Z,5.53
2023-04-24T11:46:34.849Z,6.22
2023-04-24T11:49:01.479Z,6.50
2023-04-24T11:51:31.379Z,6.82
2023-04-24T11:54:04.295Z,7.00
2023-04-24T11:56:31.078Z,6.13
2023-04-24T11:58:57.431Z,6.47
2023-04-24T12:01:24.246Z,5.85
2023-04-24T12:03:52.381Z,5.00
2023-04-24T12:06:20.082Z,5.00
2023-04-24T12:08:47.045Z,5.50
2023-04-24T12:11:16.996Z,5.53
2023-04-24T12:13:43.298Z,5.03
2023-04-24T12:16:09.739Z,5.32
2023-04-24T12:18:36.132Z,6.15
2023-04-24T12:21:23.096Z,5.32
2023-04-24T12:23:49.803Z,5.13
2023-04-24T12:26:20.008Z,6.30
2023-04-24T12:28:48.497Z,5.38
2023-04-24T12:31:15.055Z,5.53
2023-04-24T12:33:41.807Z,5.20
2023-04-24T12:36:11.460Z,5.35
2023-04-24T12:38:41.124Z,5.03
2023-04-24T12:41:09.092Z,5.18
2023-04-24T12:43:35.447Z,4.40
2023-04-24T12:46:01.819Z,4.40
2023-04-24T12:48:28.354Z,4.40
2023-04-24T12:50:54.874Z,5.18
2023-04-24T12:53:21.284Z,4.47
2023-04-24T12:55:53.297Z,4.68
2023-04-24T12:58:21.126Z,4.45
2023-04-24T13:00:58.989Z,4.97
2023-04-24T13:03:25.596Z,5.03
2023-04-24T13:05:51.971Z,4.72
2023-04-24T13:08:30.669Z,4.45
2023-04-24T13:11:20.421Z,4.18
2023-04-24T13:13:46.763Z,4.28
2023-04-24T13:16:13.177Z,4.43
2023-04-24T13:18:39.644Z,3.85
2023-04-24T13:21:06.100Z,3.80
2023-04-24T13:23:32.515Z,3.97
2023-04-24T13:25:59.479Z,4.10
2023-04-24T13:28:26.142Z,4.75
2023-04-24T13:30:52.570Z,4.20
2023-04-24T13:33:18.893Z,4.60
2023-04-24T13:35:45.370Z,4.65
2023-04-24T13:38:11.728Z,4.35
2023-04-24T13:40:38.044Z,4.75
2023-04-24T13:43:04.474Z,4.35
2023-04-24T13:45:30.918Z,4.38
2023-04-24T13:47:58.248Z,3.58
2023-04-24T13:50:24.782Z,4.28
2023-04-24T13:52:51.244Z,3.65
2023-04-24T13:55:17.717Z,3.65
2023-04-24T13:57:44.041Z,3.72
2023-04-24T14:00:12.028Z,3.60
2023-04-24T14:02:38.585Z,3.28
2023-04-24T14:05:05.347Z,3.58
2023-04-24T14:07:34.222Z,3.00
2023-04-24T14:10:01.021Z,3.25
2023-04-24T14:12:28.082Z,3.38
2023-04-24T14:14:54.568Z,3.20
2023-04-24T14:17:20.857Z,3.30
2023-04-24T14:19:47.236Z,4.00
2023-04-24T14:22:13.605Z,3.70
2023-04-24T14:24:39.931Z,3.72
2023-04-24T14:27:06.480Z,3.20
2023-04-24T14:29:34.861Z,3.00
2023-04-24T14:32:01.765Z,2.67
2023-04-24T14:34:28.207Z,3.35
2023-04-24T14:36:55.167Z,3.10
2023-04-24T14:39:21.521Z,3.40
2023-04-24T14:41:47.918Z,3.72
2023-04-24T14:44:14.221Z,3.38
2023-04-24T14:46:40.666Z,2.85
2023-04-24T14:49:10.652Z,2.83
2023-04-24T14:51:37.335Z,3.00
2023-04-24T14:54:24.330Z,2.85
2023-04-24T14:56:51.173Z,2.83
2023-04-24T14:59:17.544Z,3.03
2023-04-24T15:01:43.921Z,3.10
2023-04-24T15:06:51.123Z,3.15
2023-04-24T15:09:17.553Z,2.90
2023-04-24T15:11:43.963Z,3.35
2023-04-24T15:14:12.232Z,2.78
2023-04-24T15:16:39.502Z,2.55
2023-04-24T15:19:05.938Z,2.47
2023-04-24T15:21:32.899Z,2.65
2023-04-24T15:23:59.402Z,2.67
2023-04-24T15:26:26.035Z,2.72
2023-04-24T15:28:52.765Z,3.22
2023-04-24T15:31:19.412Z,2.88
2023-04-24T15:33:46.213Z,2.80
2023-04-24T15:36:12.808Z,3.40
2023-04-24T15:38:39.235Z,2.55
2023-04-24T15:41:05.759Z,3.13
2023-04-24T15:43:35.115Z,2.55
2023-04-24T15:46:02.085Z,2.97
2023-04-24T15:48:28.909Z,2.35
2023-04-24T15:50:56.258Z,2.70
2023-04-24T15:53:22.910Z,2.78
2023-04-24T15:55:52.907Z,3.08
2023-04-24T15:58:19.943Z,3.42
2023-04-24T16:00:46.231Z,3.33
2023-04-24T16:03:12.945Z,2.97
2023-04-24T16:05:39.923Z,3.08
2023-04-24T16:08:06.452Z,2.88
2023-04-24T16:10:32.917Z,3.13
2023-04-24T16:13:02.461Z,3.10
2023-04-24T16:15:28.851Z,3.42
2023-04-24T16:17:55.216Z,3.40
2023-04-24T16:20:21.766Z,3.25
2023-04-24T16:22:48.115Z,3.22
2023-04-24T16:25:14.471Z,3.58
2023-04-24T16:27:41.042Z,2.90
2023-04-24T16:30:07.711Z,3.42
2023-04-24T16:32:34.271Z,2.80
2023-04-24T16:35:00.696Z,3.53
2023-04-24T16:37:28.721Z,3.38
2023-04-24T16:39:55.362Z,3.17
2023-04-24T16:42:28.475Z,3.58
2023-04-24T16:44:54.787Z,3.00
2023-04-24T16:47:21.422Z,3.50
2023-04-24T16:49:49.086Z,3.83
2023-04-24T16:52:16.257Z,3.60
2023-04-24T16:54:42.551Z,3.30
2023-04-24T16:57:09.003Z,3.10
2023-04-24T16:59:35.475Z,3.00
2023-04-24T17:02:01.875Z,3.30
2023-04-24T17:04:28.671Z,2.97
2023-04-24T17:06:55.541Z,3.70
2023-04-24T17:09:21.911Z,3.10
2023-04-24T17:11:48.277Z,3.72
2023-04-24T17:14:14.703Z,3.00
2023-04-24T17:16:41.332Z,3.50
2023-04-24T17:19:07.835Z,3.72
2023-04-24T17:21:34.252Z,2.63
2023-04-24T17:24:00.665Z,3.47
2023-04-24T17:26:27.585Z,3.47
2023-04-24T17:28:55.181Z,3.25
2023-04-24T17:31:21.585Z,3.20
2023-04-24T17:33:47.946Z,3.90
2023-04-24T17:36:14.354Z,3.25
2023-04-24T17:38:40.822Z,3.30
2023-04-24T17:41:07.209Z,4.22
2023-04-24T17:43:33.668Z,3.65
2023-04-24T17:46:00.501Z,3.30
2023-04-24T17:48:27.061Z,3.20
2023-04-24T17:50:54.647Z,3.13
2023-04-24T17:53:22.948Z,3.70
2023-04-24T17:55:49.544Z,3.45
2023-04-24T17:58:16.082Z,3.33
2023-04-24T18:00:42.524Z,3.10
2023-04-24T18:03:09.522Z,3.35
2023-04-24T18:05:37.225Z,3.40
2023-04-24T18:08:04.125Z,3.35
2023-04-24T18:10:36.186Z,3.67
2023-04-24T18:13:03.157Z,3.45
2023-04-24T18:15:29.606Z,3.38
2023-04-24T18:17:55.974Z,3.65
2023-04-24T18:20:22.404Z,3.55
2023-04-24T18:22:48.734Z,3.33
2023-04-24T18:25:15.408Z,3.25
2023-04-24T18:27:42.209Z,3.30
2023-04-24T18:30:10.006Z,4.30
2023-04-24T18:32:37.401Z,3.25
2023-04-24T18:35:04.065Z,3.40
2023-04-24T18:37:33.396Z,3.90
2023-04-24T18:39:59.868Z,2.75
2023-04-24T18:42:26.224Z,4.13
2023-04-24T18:44:52.646Z,3.83
2023-04-24T18:47:19.009Z,3.38
2023-04-24T18:49:45.404Z,3.75
2023-04-24T18:52:11.750Z,3.30
2023-04-24T18:54:38.260Z,4.72
2023-04-24T18:57:04.747Z,4.10
2023-04-24T18:59:31.190Z,3.13
2023-04-24T19:01:57.856Z,4.07
2023-04-24T19:04:25.891Z,3.50
2023-04-24T19:06:52.256Z,3.83
2023-04-24T19:09:18.622Z,3.63
2023-04-24T19:11:45.033Z,4.03
2023-04-24T19:14:11.516Z,3.67
2023-04-24T19:16:37.941Z,3.90
2023-04-24T19:19:05.621Z,4.05
2023-04-24T19:21:33.863Z,3.70
2023-04-24T19:24:00.507Z,3.45
2023-04-24T19:26:28.411Z,3.95
2023-04-24T19:28:57.625Z,3.83
2023-04-24T19:31:24.428Z,3.53
2023-04-24T19:33:50.989Z,4.00
2023-04-24T19:36:17.921Z,3.70
2023-04-24T19:38:45.779Z,3.42
2023-04-24T19:41:12.758Z,3.10
2023-04-24T19:43:42.217Z,3.83
2023-04-24T19:46:08.731Z,3.50
2023-04-24T19:48:35.248Z,3.90
2023-04-24T19:51:02.419Z,3.05
2023-04-24T19:53:29.315Z,3.60
2023-04-24T19:55:55.790Z,3.90
2023-04-24T19:58:22.124Z,3.40
2023-04-24T20:00:48.563Z,3.33
2023-04-24T20:03:25.544Z,3.85
2023-04-24T20:05:59.078Z,3.10
2023-04-24T20:08:25.731Z,3.13
2023-04-24T20:10:53.928Z,3.30
2023-04-24T20:13:20.387Z,3.22
2023-04-24T20:15:46.810Z,3.45
2023-04-24T20:18:13.475Z,3.20
2023-04-24T20:20:47.689Z,3.20
2023-04-24T20:23:14.693Z,3.63
2023-04-24T20:25:41.147Z,3.20
2023-04-24T20:28:07.649Z,2.65
2023-04-24T20:30:34.517Z,3.75
2023-04-24T20:33:00.908Z,2.83
2023-04-24T20:35:27.473Z,3.50
2023-04-24T20:37:54.009Z,3.30
2023-04-24T20:40:20.374Z,3.63
2023-04-24T20:42:46.699Z,3.58
2023-04-24T20:45:13.010Z,2.88
2023-04-24T20:47:39.456Z,3.53
2023-04-24T20:50:06.412Z,3.47
2023-04-24T20:52:33.202Z,3.80
2023-04-24T20:54:59.508Z,3.00
2023-04-24T20:57:25.938Z,3.03
2023-04-24T20:59:52.567Z,2.80
2023-04-24T21:02:19.090Z,3.10
2023-04-24T21:04:45.863Z,3.58
2023-04-24T21:07:13.592Z,2.80
2023-04-24T21:09:40.025Z,3.20
2023-04-24T21:12:06.452Z,3.03
2023-04-24T21:14:32.821Z,3.92
2023-04-24T21:17:00.235Z,2.95
2023-04-24T21:19:26.618Z,3.30
2023-04-24T21:21:52.985Z,2.88
2023-04-24T21:24:19.284Z,3.50
2023-04-24T21:26:46.666Z,3.30
2023-04-24T21:29:13.207Z,3.15
2023-04-24T21:31:39.569Z,2.97
2023-04-24T21:34:05.927Z,2.80
2023-04-24T21:36:32.789Z,2.67
2023-04-24T21:38:59.248Z,2.80
2023-04-24T21:41:25.619Z,3.15
2023-04-24T21:43:52.285Z,3.13
2023-04-24T21:46:18.883Z,2.63
2023-04-24T21:48:45.241Z,3.05
2023-04-24T21:51:11.851Z,2.80
2023-04-24T21:53:38.311Z,3.28
2023-04-24T21:56:04.808Z,3.50
2023-04-24T21:58:31.206Z,3.00
2023-04-24T22:00:57.911Z,3.05
2023-04-24T22:03:24.438Z,3.80
2023-04-24T22:05:51.266Z,3.38
2023-04-24T22:08:17.627Z,2.88
2023-04-24T22:10:43.913Z,2.80
2023-04-24T22:13:10.286Z,2.67
2023-04-24T22:15:36.854Z,2.50
2023-04-24T22:18:05.056Z,3.10
2023-04-24T22:20:33.174Z,3.22
2023-04-24T22:22:59.586Z,2.85
2023-04-24T22:25:26.504Z,3.08
2023-04-24T22:27:52.888Z,2.50
2023-04-24T22:30:19.259Z,2.90
2023-04-24T22:32:46.100Z,3.00
2023-04-24T22:35:12.434Z,3.00
2023-04-24T22:37:39.205Z,3.13
2023-04-24T22:40:08.489Z,2.88
2023-04-24T22:42:35.448Z,2.88
2023-04-24T22:45:01.803Z,2.75
2023-04-24T22:47:28.171Z,3.00
2023-04-24T22:49:55.416Z,2.60
2023-04-24T22:52:21.801Z,2.75
2023-04-24T22:54:48.244Z,3.08
2023-04-24T22:57:15.066Z,2.92
2023-04-24T22:59:41.420Z,2.65
2023-04-24T23:02:07.811Z,2.72
2023-04-24T23:04:34.447Z,3.28
2023-04-24T23:07:01.109Z,2.47
2023-04-24T23:09:27.524Z,2.40
2023-04-24T23:11:54.535Z,2.85
2023-04-24T23:14:21.788Z,2.75
2023-04-24T23:16:48.516Z,2.85
2023-04-24T23:19:14.829Z,3.10
2023-04-24T23:21:41.570Z,3.60
2023-04-24T23:24:08.443Z,2.83
2023-04-24T23:26:34.778Z,2.83
2023-04-24T23:29:01.254Z,3.00
2023-04-24T23:31:27.699Z,2.75
2023-04-24T23:33:54.038Z,2.58
2023-04-24T23:36:20.574Z,3.13
2023-04-24T23:38:50.261Z,2.80
2023-04-24T23:41:17.227Z,2.78
2023-04-24T23:43:43.617Z,2.70
2023-04-24T23:46:10.238Z,2.88
2023-04-24T23:48:37.368Z,2.50
2023-04-24T23:51:03.883Z,2.83
2023-04-24T23:53:30.342Z,2.80
2023-04-24T23:55:57.224Z,3.08
2023-04-24T23:58:23.533Z,3.25
